CAP964 SAWE-SAWH
Flight info
| Callsign | CAP964 |
|---|---|
| Flight time | 0h 18m |
| Altitude | 2500 |
| Route | DABLI DABLI1Q |
| Aircraft | B350/L-SBGRW/S |
Departure
| Time | 2026-04-29 06:19 |
|---|---|
| Airport | Hermes Quijada International Airport (SAWE) |
Arrival
| Time | 2026-04-29 06:38 |
|---|---|
| Airport | Ushuaia - Malvinas Argentinas International Airport (SAWH) |
| Time | Latitude | Longitude | Altitude | Speed | Heading |
|---|---|---|---|---|---|
| 2026-04-29 06:11 | -53.78105 | -67.75337 | 61 ft | 0 kts | 135° |
| 2026-04-29 06:14 | -53.78106 | -67.75334 | 61 ft | 2 kts | 101° |
| 2026-04-29 06:15 | -53.78047 | -67.75334 | 61 ft | 12 kts | 352° |
| 2026-04-29 06:15 | -53.77970 | -67.75344 | 61 ft | 12 kts | 357° |
| 2026-04-29 06:15 | -53.77886 | -67.75353 | 61 ft | 12 kts | 5° |
| 2026-04-29 06:15 | -53.77831 | -67.75252 | 59 ft | 13 kts | 62° |
| 2026-04-29 06:16 | -53.77794 | -67.75113 | 61 ft | 13 kts | 69° |
| 2026-04-29 06:16 | -53.77769 | -67.74962 | 60 ft | 14 kts | 81° |
| 2026-04-29 06:16 | -53.77759 | -67.74782 | 58 ft | 16 kts | 87° |
| 2026-04-29 06:16 | -53.77751 | -67.74605 | 53 ft | 14 kts | 28° |
| 2026-04-29 06:17 | -53.77745 | -67.74624 | 52 ft | 7 kts | 262° |
| 2026-04-29 06:17 | -53.77745 | -67.74629 | 52 ft | 0 kts | 267° |
| 2026-04-29 06:18 | -53.77747 | -67.74690 | 53 ft | 30 kts | 268° |
| 2026-04-29 06:18 | -53.77768 | -67.75514 | 75 ft | 104 kts | 266° |
| 2026-04-29 06:18 | -53.77805 | -67.76868 | 312 ft | 128 kts | 266° |
| 2026-04-29 06:19 | -53.77873 | -67.78540 | 581 ft | 156 kts | 257° |
| 2026-04-29 06:19 | -53.78611 | -67.79931 | 835 ft | 179 kts | 199° |
| 2026-04-29 06:19 | -53.79921 | -67.79871 | 1090 ft | 201 kts | 170° |
| 2026-04-29 06:19 | -53.81346 | -67.79389 | 1338 ft | 216 kts | 171° |
| 2026-04-29 06:20 | -53.82878 | -67.79253 | 1591 ft | 225 kts | 182° |
| 2026-04-29 06:20 | -53.84441 | -67.79442 | 1839 ft | 231 kts | 186° |
| 2026-04-29 06:20 | -53.86051 | -67.79833 | 2090 ft | 236 kts | 190° |
| 2026-04-29 06:20 | -53.87678 | -67.80326 | 2312 ft | 240 kts | 191° |
| 2026-04-29 06:21 | -53.89336 | -67.80874 | 2409 ft | 244 kts | 192° |
| 2026-04-29 06:21 | -53.90987 | -67.81520 | 2453 ft | 244 kts | 195° |
| 2026-04-29 06:21 | -53.92617 | -67.82312 | 2473 ft | 244 kts | 197° |
| 2026-04-29 06:21 | -53.94239 | -67.83185 | 2487 ft | 245 kts | 198° |
| 2026-04-29 06:22 | -53.95870 | -67.84032 | 2492 ft | 245 kts | 197° |
| 2026-04-29 06:22 | -53.97482 | -67.84865 | 2494 ft | 246 kts | 197° |
| 2026-04-29 06:22 | -53.99126 | -67.85679 | 2494 ft | 245 kts | 196° |
| 2026-04-29 06:22 | -54.00749 | -67.86485 | 2498 ft | 240 kts | 197° |
| 2026-04-29 06:23 | -54.02333 | -67.87281 | 2496 ft | 235 kts | 197° |
| 2026-04-29 06:23 | -54.03890 | -67.88053 | 2505 ft | 232 kts | 197° |
| 2026-04-29 06:23 | -54.05429 | -67.88837 | 2498 ft | 230 kts | 197° |
| 2026-04-29 06:23 | -54.06959 | -67.89617 | 2502 ft | 229 kts | 197° |
| 2026-04-29 06:24 | -54.08482 | -67.90389 | 2495 ft | 228 kts | 197° |
| 2026-04-29 06:24 | -54.10001 | -67.91159 | 2494 ft | 227 kts | 197° |
| 2026-04-29 06:24 | -54.11493 | -67.91908 | 2496 ft | 227 kts | 197° |
| 2026-04-29 06:24 | -54.13013 | -67.92677 | 2508 ft | 229 kts | 197° |
| 2026-04-29 06:25 | -54.14544 | -67.93455 | 2506 ft | 230 kts | 197° |
| 2026-04-29 06:25 | -54.16083 | -67.94252 | 2493 ft | 231 kts | 197° |
| 2026-04-29 06:25 | -54.17622 | -67.95043 | 2487 ft | 230 kts | 197° |
| 2026-04-29 06:25 | -54.19159 | -67.95809 | 2507 ft | 230 kts | 197° |
| 2026-04-29 06:26 | -54.20701 | -67.96582 | 2501 ft | 231 kts | 196° |
| 2026-04-29 06:26 | -54.22222 | -67.97360 | 2499 ft | 231 kts | 197° |
| 2026-04-29 06:26 | -54.23758 | -67.98174 | 2499 ft | 231 kts | 197° |
| 2026-04-29 06:26 | -54.25298 | -67.98958 | 2499 ft | 231 kts | 197° |
| 2026-04-29 06:27 | -54.26838 | -67.99744 | 2498 ft | 231 kts | 197° |
| 2026-04-29 06:27 | -54.28379 | -68.00514 | 2504 ft | 231 kts | 197° |
| 2026-04-29 06:27 | -54.29920 | -68.01292 | 2499 ft | 231 kts | 197° |
| 2026-04-29 06:27 | -54.31460 | -68.02088 | 2497 ft | 231 kts | 197° |
| 2026-04-29 06:28 | -54.32997 | -68.02889 | 2497 ft | 231 kts | 197° |
| 2026-04-29 06:28 | -54.34535 | -68.03675 | 2500 ft | 231 kts | 197° |
| 2026-04-29 06:28 | -54.36053 | -68.04448 | 2492 ft | 231 kts | 197° |
| 2026-04-29 06:28 | -54.37582 | -68.05235 | 2576 ft | 227 kts | 197° |
| 2026-04-29 06:29 | -54.39076 | -68.05996 | 2738 ft | 222 kts | 197° |
| 2026-04-29 06:29 | -54.40554 | -68.06707 | 2878 ft | 219 kts | 192° |
| 2026-04-29 06:29 | -54.42044 | -68.07135 | 3077 ft | 215 kts | 188° |
| 2026-04-29 06:29 | -54.43514 | -68.07484 | 3303 ft | 212 kts | 188° |
| 2026-04-29 06:30 | -54.44955 | -68.07801 | 3638 ft | 205 kts | 187° |
| 2026-04-29 06:30 | -54.47671 | -68.08636 | 4275 ft | 199 kts | 192° |
| 2026-04-29 06:30 | -54.49044 | -68.09149 | 4395 ft | 205 kts | 193° |
| 2026-04-29 06:31 | -54.50459 | -68.09709 | 4460 ft | 212 kts | 193° |
| 2026-04-29 06:31 | -54.51924 | -68.10288 | 4472 ft | 219 kts | 193° |
| 2026-04-29 06:31 | -54.53425 | -68.10884 | 4499 ft | 224 kts | 193° |
| 2026-04-29 06:31 | -54.54955 | -68.11521 | 4503 ft | 228 kts | 194° |
| 2026-04-29 06:32 | -54.56510 | -68.12145 | 4492 ft | 230 kts | 193° |
| 2026-04-29 06:32 | -54.58075 | -68.12776 | 4493 ft | 231 kts | 193° |
| 2026-04-29 06:32 | -54.59615 | -68.13457 | 4495 ft | 232 kts | 197° |
| 2026-04-29 06:32 | -54.61161 | -68.14254 | 4506 ft | 232 kts | 197° |
| 2026-04-29 06:33 | -54.62714 | -68.15037 | 4501 ft | 233 kts | 197° |
| 2026-04-29 06:33 | -54.64271 | -68.15822 | 4515 ft | 234 kts | 196° |
| 2026-04-29 06:33 | -54.65831 | -68.16614 | 4491 ft | 234 kts | 197° |
| 2026-04-29 06:33 | -54.67379 | -68.17396 | 4312 ft | 229 kts | 195° |
| 2026-04-29 06:34 | -54.68924 | -68.18007 | 4088 ft | 226 kts | 190° |
| 2026-04-29 06:34 | -54.70472 | -68.18435 | 3869 ft | 225 kts | 189° |
| 2026-04-29 06:34 | -54.72001 | -68.18811 | 3569 ft | 227 kts | 188° |
| 2026-04-29 06:34 | -54.73607 | -68.19164 | 3292 ft | 238 kts | 187° |
| 2026-04-29 06:35 | -54.75264 | -68.19523 | 2987 ft | 245 kts | 187° |
| 2026-04-29 06:35 | -54.76963 | -68.19917 | 2674 ft | 244 kts | 188° |
| 2026-04-29 06:35 | -54.78556 | -68.20310 | 2375 ft | 220 kts | 188° |
| 2026-04-29 06:35 | -54.80026 | -68.20634 | 2077 ft | 207 kts | 187° |
| 2026-04-29 06:36 | -54.81327 | -68.20686 | 1653 ft | 168 kts | 176° |
| 2026-04-29 06:36 | -54.82336 | -68.21086 | 1257 ft | 137 kts | 213° |
| 2026-04-29 06:36 | -54.83008 | -68.22130 | 826 ft | 132 kts | 229° |
| 2026-04-29 06:36 | -54.83593 | -68.23304 | 568 ft | 123 kts | 233° |
| 2026-04-29 06:37 | -54.84020 | -68.24507 | 399 ft | 111 kts | 245° |
| 2026-04-29 06:37 | -54.84179 | -68.25734 | 285 ft | 102 kts | 265° |
| 2026-04-29 06:37 | -54.84229 | -68.26970 | 173 ft | 100 kts | 265° |
| 2026-04-29 06:37 | -54.84270 | -68.28082 | 76 ft | 82 kts | 264° |
| 2026-04-29 06:38 | -54.84297 | -68.28701 | 73 ft | 16 kts | 266° |
| 2026-04-29 06:38 | -54.84298 | -68.28722 | 76 ft | 9 kts | 266° |
| 2026-04-29 06:38 | -54.84304 | -68.28859 | 78 ft | 17 kts | 266° |
| 2026-04-29 06:38 | -54.84318 | -68.29168 | 80 ft | 31 kts | 267° |
| 2026-04-29 06:39 | -54.84334 | -68.29643 | 82 ft | 46 kts | 268° |
| 2026-04-29 06:39 | -54.84357 | -68.30253 | 81 ft | 54 kts | 266° |
| 2026-04-29 06:39 | -54.84378 | -68.30858 | 86 ft | 33 kts | 278° |
| 2026-04-29 06:39 | -54.84309 | -68.30956 | 86 ft | 12 kts | 345° |
| 2026-04-29 06:40 | -54.84215 | -68.30973 | 85 ft | 15 kts | 355° |
| 2026-04-29 06:40 | -54.84109 | -68.30988 | 88 ft | 15 kts | 357° |
| 2026-04-29 06:40 | -54.84036 | -68.31030 | 85 ft | 1 kts | 247° |
| 2026-04-29 06:40 | -54.84051 | -68.31033 | 88 ft | 0 kts | 177° |
| 2026-04-29 06:41 | -54.84053 | -68.31033 | 88 ft | 0 kts | 176° |